sensor_id;sensor_type;location;lat;lon;timestamp;P1;durP1;ratioP1;P2;durP2;ratioP2
10465;SDS011;5280;42.600;23.556;2023-03-15T00:01:25;2.17;;;1.80;;
10465;SDS011;5280;42.600;23.556;2023-03-15T00:03:52;2.07;;;1.60;;
10465;SDS011;5280;42.600;23.556;2023-03-15T00:06:20;3.70;;;1.60;;
10465;SDS011;5280;42.600;23.556;2023-03-15T00:08:46;1.67;;;1.57;;
10465;SDS011;5280;42.600;23.556;2023-03-15T00:11:13;1.60;;;1.50;;
10465;SDS011;5280;42.600;23.556;2023-03-15T00:13:41;1.90;;;1.70;;
10465;SDS011;5280;42.600;23.556;2023-03-15T00:16:09;3.73;;;1.60;;
10465;SDS011;5280;42.600;23.556;2023-03-15T00:18:42;1.83;;;1.73;;
10465;SDS011;5280;42.600;23.556;2023-03-15T00:21:09;2.00;;;1.80;;
10465;SDS011;5280;42.600;23.556;2023-03-15T00:23:36;3.73;;;1.90;;
10465;SDS011;5280;42.600;23.556;2023-03-15T00:26:02;2.73;;;1.70;;
10465;SDS011;5280;42.600;23.556;2023-03-15T00:28:30;4.33;;;1.90;;
10465;SDS011;5280;42.600;23.556;2023-03-15T00:31:03;2.30;;;1.80;;
10465;SDS011;5280;42.600;23.556;2023-03-15T00:33:34;1.80;;;1.60;;
10465;SDS011;5280;42.600;23.556;2023-03-15T00:36:02;2.10;;;1.63;;
10465;SDS011;5280;42.600;23.556;2023-03-15T00:38:30;3.07;;;1.60;;
10465;SDS011;5280;42.600;23.556;2023-03-15T00:40:57;2.07;;;1.73;;
10465;SDS011;5280;42.600;23.556;2023-03-15T00:43:24;3.17;;;1.60;;
10465;SDS011;5280;42.600;23.556;2023-03-15T00:45:51;3.40;;;1.83;;
10465;SDS011;5280;42.600;23.556;2023-03-15T00:48:35;2.70;;;2.10;;
10465;SDS011;5280;42.600;23.556;2023-03-15T00:51:04;3.83;;;1.80;;
10465;SDS011;5280;42.600;23.556;2023-03-15T00:53:36;2.30;;;1.47;;
10465;SDS011;5280;42.600;23.556;2023-03-15T00:56:04;3.23;;;1.80;;
10465;SDS011;5280;42.600;23.556;2023-03-15T00:58:32;5.53;;;1.70;;
10465;SDS011;5280;42.600;23.556;2023-03-15T01:00:59;3.13;;;1.80;;
10465;SDS011;5280;42.600;23.556;2023-03-15T01:03:26;1.93;;;1.77;;
10465;SDS011;5280;42.600;23.556;2023-03-15T01:05:54;2.67;;;2.03;;
10465;SDS011;5280;42.600;23.556;2023-03-15T01:08:21;2.40;;;2.20;;
10465;SDS011;5280;42.600;23.556;2023-03-15T01:10:49;2.50;;;1.90;;
10465;SDS011;5280;42.600;23.556;2023-03-15T01:13:16;2.47;;;2.27;;
10465;SDS011;5280;42.600;23.556;2023-03-15T01:15:44;2.67;;;2.03;;
10465;SDS011;5280;42.600;23.556;2023-03-15T01:18:11;2.63;;;2.27;;
10465;SDS011;5280;42.600;23.556;2023-03-15T01:20:41;2.20;;;1.93;;
10465;SDS011;5280;42.600;23.556;2023-03-15T01:23:10;3.50;;;2.30;;
10465;SDS011;5280;42.600;23.556;2023-03-15T01:25:37;3.27;;;2.83;;
10465;SDS011;5280;42.600;23.556;2023-03-15T01:28:04;4.03;;;2.37;;
10465;SDS011;5280;42.600;23.556;2023-03-15T01:30:31;3.43;;;2.43;;
10465;SDS011;5280;42.600;23.556;2023-03-15T01:32:58;3.57;;;2.40;;
10465;SDS011;5280;42.600;23.556;2023-03-15T01:35:25;5.03;;;2.37;;
10465;SDS011;5280;42.600;23.556;2023-03-15T01:37:52;3.33;;;2.33;;
10465;SDS011;5280;42.600;23.556;2023-03-15T01:40:20;3.90;;;2.50;;
10465;SDS011;5280;42.600;23.556;2023-03-15T01:42:51;2.93;;;2.40;;
10465;SDS011;5280;42.600;23.556;2023-03-15T01:48:34;2.93;;;2.47;;
10465;SDS011;5280;42.600;23.556;2023-03-15T01:51:05;2.90;;;2.50;;
10465;SDS011;5280;42.600;23.556;2023-03-15T01:53:37;4.80;;;2.50;;
10465;SDS011;5280;42.600;23.556;2023-03-15T01:56:10;3.13;;;2.23;;
10465;SDS011;5280;42.600;23.556;2023-03-15T01:58:37;2.40;;;2.20;;
10465;SDS011;5280;42.600;23.556;2023-03-15T02:01:06;4.37;;;2.43;;
10465;SDS011;5280;42.600;23.556;2023-03-15T02:03:35;2.63;;;2.30;;
10465;SDS011;5280;42.600;23.556;2023-03-15T02:06:11;2.97;;;2.13;;
10465;SDS011;5280;42.600;23.556;2023-03-15T02:08:42;2.27;;;2.07;;
10465;SDS011;5280;42.600;23.556;2023-03-15T02:11:13;2.80;;;2.00;;
10465;SDS011;5280;42.600;23.556;2023-03-15T02:13:42;2.50;;;2.17;;
10465;SDS011;5280;42.600;23.556;2023-03-15T02:16:10;3.10;;;2.33;;
10465;SDS011;5280;42.600;23.556;2023-03-15T02:18:37;2.60;;;1.90;;
10465;SDS011;5280;42.600;23.556;2023-03-15T02:21:07;2.33;;;2.00;;
10465;SDS011;5280;42.600;23.556;2023-03-15T02:23:41;4.73;;;2.30;;
10465;SDS011;5280;42.600;23.556;2023-03-15T02:26:16;2.10;;;1.87;;
10465;SDS011;5280;42.600;23.556;2023-03-15T02:28:50;2.73;;;2.00;;
10465;SDS011;5280;42.600;23.556;2023-03-15T02:31:18;3.43;;;2.20;;
10465;SDS011;5280;42.600;23.556;2023-03-15T02:33:46;4.90;;;2.20;;
10465;SDS011;5280;42.600;23.556;2023-03-15T02:36:16;2.20;;;2.00;;
10465;SDS011;5280;42.600;23.556;2023-03-15T02:38:45;3.73;;;2.20;;
10465;SDS011;5280;42.600;23.556;2023-03-15T02:41:14;2.77;;;2.20;;
10465;SDS011;5280;42.600;23.556;2023-03-15T02:43:44;4.33;;;2.50;;
10465;SDS011;5280;42.600;23.556;2023-03-15T02:46:15;2.70;;;1.90;;
10465;SDS011;5280;42.600;23.556;2023-03-15T02:48:43;2.37;;;2.17;;
10465;SDS011;5280;42.600;23.556;2023-03-15T02:51:15;2.93;;;1.87;;
10465;SDS011;5280;42.600;23.556;2023-03-15T02:53:44;2.67;;;2.00;;
10465;SDS011;5280;42.600;23.556;2023-03-15T02:56:12;2.93;;;2.27;;
10465;SDS011;5280;42.600;23.556;2023-03-15T02:58:39;2.37;;;2.17;;
10465;SDS011;5280;42.600;23.556;2023-03-15T03:01:09;1.87;;;1.77;;
10465;SDS011;5280;42.600;23.556;2023-03-15T03:03:38;2.77;;;2.33;;
10465;SDS011;5280;42.600;23.556;2023-03-15T03:06:05;2.47;;;2.27;;
10465;SDS011;5280;42.600;23.556;2023-03-15T03:08:33;3.10;;;2.20;;
10465;SDS011;5280;42.600;23.556;2023-03-15T03:11:00;2.87;;;1.70;;
10465;SDS011;5280;42.600;23.556;2023-03-15T03:13:27;2.10;;;1.90;;
10465;SDS011;5280;42.600;23.556;2023-03-15T03:15:54;2.93;;;1.93;;
10465;SDS011;5280;42.600;23.556;2023-03-15T03:18:23;5.80;;;2.50;;
10465;SDS011;5280;42.600;23.556;2023-03-15T03:20:53;2.10;;;1.90;;
10465;SDS011;5280;42.600;23.556;2023-03-15T03:23:30;2.33;;;1.93;;
10465;SDS011;5280;42.600;23.556;2023-03-15T03:25:58;2.83;;;1.77;;
10465;SDS011;5280;42.600;23.556;2023-03-15T03:28:28;2.97;;;2.17;;
10465;SDS011;5280;42.600;23.556;2023-03-15T03:36:01;2.93;;;2.30;;
10465;SDS011;5280;42.600;23.556;2023-03-15T03:38:29;2.70;;;2.03;;
10465;SDS011;5280;42.600;23.556;2023-03-15T03:40:55;2.40;;;2.03;;
10465;SDS011;5280;42.600;23.556;2023-03-15T03:43:22;3.23;;;1.87;;
10465;SDS011;5280;42.600;23.556;2023-03-15T03:45:49;2.67;;;2.10;;
10465;SDS011;5280;42.600;23.556;2023-03-15T03:48:16;3.00;;;1.70;;
10465;SDS011;5280;42.600;23.556;2023-03-15T03:50:43;2.30;;;1.80;;
10465;SDS011;5280;42.600;23.556;2023-03-15T03:53:11;3.70;;;2.03;;
10465;SDS011;5280;42.600;23.556;2023-03-15T03:55:38;2.33;;;2.03;;
10465;SDS011;5280;42.600;23.556;2023-03-15T03:58:07;2.50;;;2.03;;
10465;SDS011;5280;42.600;23.556;2023-03-15T04:00:33;2.03;;;1.83;;
10465;SDS011;5280;42.600;23.556;2023-03-15T04:03:02;2.83;;;2.00;;
10465;SDS011;5280;42.600;23.556;2023-03-15T04:05:29;2.67;;;2.47;;
10465;SDS011;5280;42.600;23.556;2023-03-15T04:07:56;3.30;;;2.13;;
10465;SDS011;5280;42.600;23.556;2023-03-15T04:10:24;2.10;;;1.87;;
10465;SDS011;5280;42.600;23.556;2023-03-15T04:12:53;2.43;;;1.60;;
10465;SDS011;5280;42.600;23.556;2023-03-15T04:15:22;2.13;;;1.83;;
10465;SDS011;5280;42.600;23.556;2023-03-15T04:17:49;3.37;;;2.20;;
10465;SDS011;5280;42.600;23.556;2023-03-15T04:20:20;1.90;;;1.73;;
10465;SDS011;5280;42.600;23.556;2023-03-15T04:22:47;3.37;;;2.33;;
10465;SDS011;5280;42.600;23.556;2023-03-15T04:25:14;2.03;;;1.70;;
10465;SDS011;5280;42.600;23.556;2023-03-15T04:27:43;1.90;;;1.70;;
10465;SDS011;5280;42.600;23.556;2023-03-15T04:30:10;2.77;;;1.73;;
10465;SDS011;5280;42.600;23.556;2023-03-15T04:32:37;3.30;;;1.97;;
10465;SDS011;5280;42.600;23.556;2023-03-15T04:35:07;2.13;;;1.83;;
10465;SDS011;5280;42.600;23.556;2023-03-15T04:37:34;2.27;;;1.90;;
10465;SDS011;5280;42.600;23.556;2023-03-15T04:40:01;1.47;;;1.37;;
10465;SDS011;5280;42.600;23.556;2023-03-15T04:42:31;3.43;;;1.47;;
10465;SDS011;5280;42.600;23.556;2023-03-15T04:45:04;2.50;;;1.90;;
10465;SDS011;5280;42.600;23.556;2023-03-15T04:47:32;1.73;;;1.60;;
10465;SDS011;5280;42.600;23.556;2023-03-15T04:49:59;2.13;;;1.67;;
10465;SDS011;5280;42.600;23.556;2023-03-15T04:52:26;2.00;;;1.60;;
10465;SDS011;5280;42.600;23.556;2023-03-15T04:54:53;2.07;;;1.87;;
10465;SDS011;5280;42.600;23.556;2023-03-15T04:57:19;2.63;;;1.80;;
10465;SDS011;5280;42.600;23.556;2023-03-15T04:59:49;1.93;;;1.70;;
10465;SDS011;5280;42.600;23.556;2023-03-15T05:02:17;2.43;;;1.70;;
10465;SDS011;5280;42.600;23.556;2023-03-15T05:04:44;2.87;;;1.87;;
10465;SDS011;5280;42.600;23.556;2023-03-15T05:07:11;2.53;;;1.80;;
10465;SDS011;5280;42.600;23.556;2023-03-15T05:09:38;3.33;;;1.70;;
10465;SDS011;5280;42.600;23.556;2023-03-15T05:12:05;1.80;;;1.70;;
10465;SDS011;5280;42.600;23.556;2023-03-15T05:14:33;1.53;;;1.43;;
10465;SDS011;5280;42.600;23.556;2023-03-15T05:17:00;3.50;;;1.63;;
10465;SDS011;5280;42.600;23.556;2023-03-15T05:19:30;1.63;;;1.53;;
10465;SDS011;5280;42.600;23.556;2023-03-15T05:21:58;2.40;;;1.80;;
10465;SDS011;5280;42.600;23.556;2023-03-15T05:24:25;1.80;;;1.70;;
10465;SDS011;5280;42.600;23.556;2023-03-15T05:26:52;2.20;;;1.83;;
10465;SDS011;5280;42.600;23.556;2023-03-15T05:29:19;3.00;;;2.00;;
10465;SDS011;5280;42.600;23.556;2023-03-15T05:31:46;4.07;;;2.10;;
10465;SDS011;5280;42.600;23.556;2023-03-15T05:34:13;2.73;;;1.63;;
10465;SDS011;5280;42.600;23.556;2023-03-15T05:36:42;2.67;;;2.07;;
10465;SDS011;5280;42.600;23.556;2023-03-15T05:39:09;2.67;;;1.57;;
10465;SDS011;5280;42.600;23.556;2023-03-15T05:41:40;6.80;;;1.90;;
10465;SDS011;5280;42.600;23.556;2023-03-15T05:44:07;3.53;;;1.70;;
10465;SDS011;5280;42.600;23.556;2023-03-15T05:46:34;4.23;;;1.60;;
10465;SDS011;5280;42.600;23.556;2023-03-15T05:49:01;2.10;;;1.90;;
10465;SDS011;5280;42.600;23.556;2023-03-15T05:51:28;2.13;;;1.73;;
10465;SDS011;5280;42.600;23.556;2023-03-15T05:53:56;2.40;;;1.80;;
10465;SDS011;5280;42.600;23.556;2023-03-15T05:56:23;2.53;;;1.70;;
10465;SDS011;5280;42.600;23.556;2023-03-15T05:58:50;5.20;;;2.30;;
10465;SDS011;5280;42.600;23.556;2023-03-15T06:01:17;4.50;;;1.80;;
10465;SDS011;5280;42.600;23.556;2023-03-15T06:03:44;3.63;;;1.93;;
10465;SDS011;5280;42.600;23.556;2023-03-15T06:06:10;4.17;;;1.90;;
10465;SDS011;5280;42.600;23.556;2023-03-15T06:08:37;2.00;;;1.87;;
10465;SDS011;5280;42.600;23.556;2023-03-15T06:11:06;5.67;;;2.10;;
10465;SDS011;5280;42.600;23.556;2023-03-15T06:13:32;4.10;;;1.60;;
10465;SDS011;5280;42.600;23.556;2023-03-15T06:15:59;4.33;;;2.90;;
10465;SDS011;5280;42.600;23.556;2023-03-15T06:18:26;4.57;;;2.80;;
10465;SDS011;5280;42.600;23.556;2023-03-15T06:20:53;3.07;;;2.57;;
10465;SDS011;5280;42.600;23.556;2023-03-15T06:23:20;3.17;;;2.40;;
10465;SDS011;5280;42.600;23.556;2023-03-15T06:25:46;4.53;;;2.60;;
10465;SDS011;5280;42.600;23.556;2023-03-15T06:28:14;4.23;;;3.00;;
10465;SDS011;5280;42.600;23.556;2023-03-15T06:30:42;3.90;;;3.17;;
10465;SDS011;5280;42.600;23.556;2023-03-15T06:33:09;5.50;;;3.17;;
10465;SDS011;5280;42.600;23.556;2023-03-15T06:35:35;5.10;;;3.10;;
10465;SDS011;5280;42.600;23.556;2023-03-15T06:38:02;4.60;;;3.30;;
10465;SDS011;5280;42.600;23.556;2023-03-15T06:40:30;4.77;;;4.27;;
10465;SDS011;5280;42.600;23.556;2023-03-15T06:42:57;4.60;;;4.03;;
10465;SDS011;5280;42.600;23.556;2023-03-15T06:45:29;4.07;;;3.67;;
10465;SDS011;5280;42.600;23.556;2023-03-15T06:47:56;3.23;;;2.93;;
10465;SDS011;5280;42.600;23.556;2023-03-15T06:50:23;3.77;;;3.13;;
10465;SDS011;5280;42.600;23.556;2023-03-15T06:52:50;7.83;;;3.20;;
10465;SDS011;5280;42.600;23.556;2023-03-15T06:55:17;5.20;;;3.20;;
10465;SDS011;5280;42.600;23.556;2023-03-15T06:57:44;3.10;;;2.80;;
10465;SDS011;5280;42.600;23.556;2023-03-15T07:00:11;4.23;;;3.07;;
10465;SDS011;5280;42.600;23.556;2023-03-15T07:02:40;7.90;;;2.87;;
10465;SDS011;5280;42.600;23.556;2023-03-15T07:05:07;2.83;;;2.63;;
10465;SDS011;5280;42.600;23.556;2023-03-15T07:07:35;4.70;;;2.33;;
10465;SDS011;5280;42.600;23.556;2023-03-15T07:10:05;4.50;;;2.93;;
10465;SDS011;5280;42.600;23.556;2023-03-15T07:12:32;4.17;;;2.03;;
10465;SDS011;5280;42.600;23.556;2023-03-15T07:14:59;2.60;;;2.17;;
10465;SDS011;5280;42.600;23.556;2023-03-15T07:17:26;2.50;;;2.30;;
10465;SDS011;5280;42.600;23.556;2023-03-15T07:19:54;2.33;;;2.13;;
10465;SDS011;5280;42.600;23.556;2023-03-15T07:22:21;2.93;;;2.30;;
10465;SDS011;5280;42.600;23.556;2023-03-15T07:24:48;2.50;;;2.23;;
10465;SDS011;5280;42.600;23.556;2023-03-15T07:27:15;3.13;;;2.10;;
10465;SDS011;5280;42.600;23.556;2023-03-15T07:29:42;3.33;;;2.47;;
10465;SDS011;5280;42.600;23.556;2023-03-15T07:32:09;2.47;;;2.20;;
10465;SDS011;5280;42.600;23.556;2023-03-15T07:34:35;4.53;;;2.00;;
10465;SDS011;5280;42.600;23.556;2023-03-15T07:37:04;2.30;;;2.10;;
10465;SDS011;5280;42.600;23.556;2023-03-15T07:39:31;2.30;;;2.10;;
10465;SDS011;5280;42.600;23.556;2023-03-15T07:41:57;3.97;;;2.60;;
10465;SDS011;5280;42.600;23.556;2023-03-15T07:44:25;2.70;;;2.00;;
10465;SDS011;5280;42.600;23.556;2023-03-15T07:46:52;2.83;;;1.97;;
10465;SDS011;5280;42.600;23.556;2023-03-15T07:49:20;3.20;;;2.00;;
10465;SDS011;5280;42.600;23.556;2023-03-15T07:51:47;4.43;;;2.60;;
10465;SDS011;5280;42.600;23.556;2023-03-15T07:54:15;4.27;;;2.27;;
10465;SDS011;5280;42.600;23.556;2023-03-15T07:56:43;4.93;;;2.50;;
10465;SDS011;5280;42.600;23.556;2023-03-15T07:59:10;4.17;;;2.17;;
10465;SDS011;5280;42.600;23.556;2023-03-15T08:01:37;2.77;;;2.00;;
10465;SDS011;5280;42.600;23.556;2023-03-15T08:04:04;2.43;;;2.00;;
10465;SDS011;5280;42.600;23.556;2023-03-15T08:06:30;2.53;;;2.20;;
10465;SDS011;5280;42.600;23.556;2023-03-15T08:08:57;4.03;;;2.70;;
10465;SDS011;5280;42.600;23.556;2023-03-15T08:11:27;3.03;;;2.20;;
10465;SDS011;5280;42.600;23.556;2023-03-15T08:13:53;3.57;;;2.03;;
10465;SDS011;5280;42.600;23.556;2023-03-15T08:16:20;2.50;;;2.30;;
10465;SDS011;5280;42.600;23.556;2023-03-15T08:18:47;2.40;;;2.30;;
10465;SDS011;5280;42.600;23.556;2023-03-15T08:21:14;2.60;;;2.33;;
10465;SDS011;5280;42.600;23.556;2023-03-15T08:23:41;3.00;;;2.20;;
10465;SDS011;5280;42.600;23.556;2023-03-15T08:26:08;3.80;;;2.60;;
10465;SDS011;5280;42.600;23.556;2023-03-15T08:28:36;2.23;;;2.00;;
10465;SDS011;5280;42.600;23.556;2023-03-15T08:31:05;2.00;;;1.90;;
10465;SDS011;5280;42.600;23.556;2023-03-15T08:33:32;3.20;;;2.10;;
10465;SDS011;5280;42.600;23.556;2023-03-15T08:35:59;2.03;;;1.80;;
10465;SDS011;5280;42.600;23.556;2023-03-15T08:38:26;2.53;;;2.33;;
10465;SDS011;5280;42.600;23.556;2023-03-15T08:40:54;2.00;;;1.80;;
10465;SDS011;5280;42.600;23.556;2023-03-15T08:43:21;3.70;;;2.70;;
10465;SDS011;5280;42.600;23.556;2023-03-15T08:45:50;3.37;;;2.63;;
10465;SDS011;5280;42.600;23.556;2023-03-15T08:48:17;2.67;;;2.17;;
10465;SDS011;5280;42.600;23.556;2023-03-15T08:50:44;2.50;;;2.30;;
10465;SDS011;5280;42.600;23.556;2023-03-15T08:53:11;7.60;;;4.13;;
10465;SDS011;5280;42.600;23.556;2023-03-15T08:55:38;3.87;;;2.97;;
10465;SDS011;5280;42.600;23.556;2023-03-15T08:58:05;2.70;;;1.93;;
10465;SDS011;5280;42.600;23.556;2023-03-15T09:00:32;3.77;;;2.10;;
10465;SDS011;5280;42.600;23.556;2023-03-15T09:03:00;3.10;;;2.30;;
10465;SDS011;5280;42.600;23.556;2023-03-15T09:05:27;5.00;;;2.10;;
10465;SDS011;5280;42.600;23.556;2023-03-15T09:07:54;2.23;;;2.03;;
10465;SDS011;5280;42.600;23.556;2023-03-15T09:10:21;3.40;;;2.20;;
10465;SDS011;5280;42.600;23.556;2023-03-15T09:12:49;4.40;;;2.03;;
10465;SDS011;5280;42.600;23.556;2023-03-15T09:15:17;4.20;;;2.30;;
10465;SDS011;5280;42.600;23.556;2023-03-15T09:17:45;2.23;;;2.03;;
10465;SDS011;5280;42.600;23.556;2023-03-15T09:20:16;7.53;;;2.77;;
10465;SDS011;5280;42.600;23.556;2023-03-15T09:22:48;4.93;;;3.20;;
10465;SDS011;5280;42.600;23.556;2023-03-15T09:25:16;3.10;;;2.57;;
10465;SDS011;5280;42.600;23.556;2023-03-15T09:27:51;3.37;;;2.10;;
10465;SDS011;5280;42.600;23.556;2023-03-15T09:30:18;2.20;;;2.00;;
10465;SDS011;5280;42.600;23.556;2023-03-15T09:32:45;3.20;;;1.97;;
10465;SDS011;5280;42.600;23.556;2023-03-15T09:35:13;3.80;;;2.20;;
10465;SDS011;5280;42.600;23.556;2023-03-15T09:37:42;5.67;;;2.40;;
10465;SDS011;5280;42.600;23.556;2023-03-15T09:40:14;2.13;;;2.03;;
10465;SDS011;5280;42.600;23.556;2023-03-15T09:42:58;2.50;;;2.30;;
10465;SDS011;5280;42.600;23.556;2023-03-15T09:45:35;2.87;;;2.40;;
10465;SDS011;5280;42.600;23.556;2023-03-15T09:48:20;2.13;;;1.83;;
10465;SDS011;5280;42.600;23.556;2023-03-15T09:50:55;4.63;;;2.37;;
10465;SDS011;5280;42.600;23.556;2023-03-15T09:53:26;3.67;;;2.50;;
10465;SDS011;5280;42.600;23.556;2023-03-15T09:55:58;4.50;;;2.30;;
10465;SDS011;5280;42.600;23.556;2023-03-15T09:58:26;3.87;;;2.20;;
10465;SDS011;5280;42.600;23.556;2023-03-15T10:00:57;2.37;;;2.07;;
10465;SDS011;5280;42.600;23.556;2023-03-15T10:03:28;4.37;;;2.40;;
10465;SDS011;5280;42.600;23.556;2023-03-15T10:06:01;2.87;;;2.03;;
10465;SDS011;5280;42.600;23.556;2023-03-15T10:08:32;2.30;;;2.10;;
10465;SDS011;5280;42.600;23.556;2023-03-15T10:11:03;3.80;;;2.50;;
10465;SDS011;5280;42.600;23.556;2023-03-15T10:13:41;3.03;;;2.30;;
10465;SDS011;5280;42.600;23.556;2023-03-15T10:16:24;2.90;;;2.10;;
10465;SDS011;5280;42.600;23.556;2023-03-15T10:19:00;2.83;;;2.40;;
10465;SDS011;5280;42.600;23.556;2023-03-15T10:21:35;4.13;;;2.50;;
10465;SDS011;5280;42.600;23.556;2023-03-15T10:24:10;2.57;;;2.00;;
10465;SDS011;5280;42.600;23.556;2023-03-15T10:26:43;3.70;;;2.40;;
10465;SDS011;5280;42.600;23.556;2023-03-15T10:29:12;2.33;;;2.13;;
10465;SDS011;5280;42.600;23.556;2023-03-15T10:31:43;3.53;;;2.30;;
10465;SDS011;5280;42.600;23.556;2023-03-15T10:34:16;2.17;;;1.97;;
10465;SDS011;5280;42.600;23.556;2023-03-15T10:36:47;3.83;;;2.10;;
10465;SDS011;5280;42.600;23.556;2023-03-15T10:39:18;2.50;;;2.30;;
10465;SDS011;5280;42.600;23.556;2023-03-15T10:41:47;2.30;;;2.10;;
10465;SDS011;5280;42.600;23.556;2023-03-15T10:44:15;2.63;;;2.10;;
10465;SDS011;5280;42.600;23.556;2023-03-15T10:46:57;2.33;;;2.13;;
10465;SDS011;5280;42.600;23.556;2023-03-15T10:49:31;2.20;;;2.07;;
10465;SDS011;5280;42.600;23.556;2023-03-15T10:52:02;2.10;;;2.00;;
10465;SDS011;5280;42.600;23.556;2023-03-15T10:54:30;2.60;;;2.40;;
10465;SDS011;5280;42.600;23.556;2023-03-15T10:56:59;2.07;;;1.97;;
10465;SDS011;5280;42.600;23.556;2023-03-15T10:59:28;3.33;;;2.40;;
10465;SDS011;5280;42.600;23.556;2023-03-15T11:02:18;3.40;;;2.40;;
10465;SDS011;5280;42.600;23.556;2023-03-15T11:04:48;4.53;;;2.10;;
10465;SDS011;5280;42.600;23.556;2023-03-15T11:07:25;2.30;;;2.10;;
10465;SDS011;5280;42.600;23.556;2023-03-15T11:09:53;2.40;;;2.10;;
10465;SDS011;5280;42.600;23.556;2023-03-15T11:12:24;2.20;;;2.00;;
10465;SDS011;5280;42.600;23.556;2023-03-15T11:14:55;2.87;;;2.50;;
10465;SDS011;5280;42.600;23.556;2023-03-15T11:17:23;8.10;;;5.43;;
10465;SDS011;5280;42.600;23.556;2023-03-15T11:19:53;11.93;;;6.13;;
10465;SDS011;5280;42.600;23.556;2023-03-15T11:22:26;15.60;;;9.47;;
10465;SDS011;5280;42.600;23.556;2023-03-15T11:24:53;6.27;;;4.13;;
10465;SDS011;5280;42.600;23.556;2023-03-15T11:27:20;4.70;;;3.00;;
10465;SDS011;5280;42.600;23.556;2023-03-15T11:29:50;6.27;;;4.00;;
10465;SDS011;5280;42.600;23.556;2023-03-15T11:32:21;6.43;;;3.40;;
10465;SDS011;5280;42.600;23.556;2023-03-15T11:34:52;5.40;;;2.47;;
10465;SDS011;5280;42.600;23.556;2023-03-15T11:37:24;3.37;;;2.00;;
10465;SDS011;5280;42.600;23.556;2023-03-15T11:39:56;5.30;;;2.53;;
10465;SDS011;5280;42.600;23.556;2023-03-15T11:42:29;5.37;;;2.20;;
10465;SDS011;5280;42.600;23.556;2023-03-15T11:45:00;2.07;;;1.97;;
10465;SDS011;5280;42.600;23.556;2023-03-15T11:47:33;3.10;;;2.00;;
10465;SDS011;5280;42.600;23.556;2023-03-15T11:50:08;3.73;;;2.53;;
10465;SDS011;5280;42.600;23.556;2023-03-15T11:52:40;2.20;;;2.00;;
10465;SDS011;5280;42.600;23.556;2023-03-15T11:55:16;3.87;;;2.30;;
10465;SDS011;5280;42.600;23.556;2023-03-15T11:57:45;2.57;;;2.37;;
10465;SDS011;5280;42.600;23.556;2023-03-15T12:00:18;2.57;;;2.03;;
10465;SDS011;5280;42.600;23.556;2023-03-15T12:03:24;5.23;;;2.60;;
10465;SDS011;5280;42.600;23.556;2023-03-15T12:05:59;4.17;;;2.27;;
10465;SDS011;5280;42.600;23.556;2023-03-15T12:08:41;3.10;;;2.07;;
10465;SDS011;5280;42.600;23.556;2023-03-15T12:11:10;4.03;;;3.03;;
10465;SDS011;5280;42.600;23.556;2023-03-15T12:13:37;3.50;;;2.50;;
10465;SDS011;5280;42.600;23.556;2023-03-15T12:16:11;2.97;;;2.40;;
10465;SDS011;5280;42.600;23.556;2023-03-15T12:18:39;3.23;;;2.43;;
10465;SDS011;5280;42.600;23.556;2023-03-15T12:21:16;4.17;;;2.23;;
10465;SDS011;5280;42.600;23.556;2023-03-15T12:23:54;5.37;;;3.10;;
10465;SDS011;5280;42.600;23.556;2023-03-15T12:26:42;3.57;;;3.27;;
10465;SDS011;5280;42.600;23.556;2023-03-15T12:29:16;5.27;;;3.83;;
10465;SDS011;5280;42.600;23.556;2023-03-15T12:31:50;4.83;;;2.77;;
10465;SDS011;5280;42.600;23.556;2023-03-15T12:34:27;2.40;;;2.20;;
10465;SDS011;5280;42.600;23.556;2023-03-15T12:37:02;3.90;;;2.53;;
10465;SDS011;5280;42.600;23.556;2023-03-15T12:39:37;3.63;;;3.27;;
10465;SDS011;5280;42.600;23.556;2023-03-15T12:45:32;4.50;;;2.23;;
10465;SDS011;5280;42.600;23.556;2023-03-15T12:48:17;3.63;;;2.30;;
10465;SDS011;5280;42.600;23.556;2023-03-15T12:50:49;2.40;;;2.20;;
10465;SDS011;5280;42.600;23.556;2023-03-15T12:53:39;4.33;;;2.23;;
10465;SDS011;5280;42.600;23.556;2023-03-15T12:56:31;3.13;;;2.20;;
10465;SDS011;5280;42.600;23.556;2023-03-15T12:59:04;2.60;;;2.27;;
10465;SDS011;5280;42.600;23.556;2023-03-15T13:01:40;4.00;;;2.47;;
10465;SDS011;5280;42.600;23.556;2023-03-15T13:04:08;5.67;;;3.00;;
10465;SDS011;5280;42.600;23.556;2023-03-15T13:09:54;3.20;;;2.90;;
10465;SDS011;5280;42.600;23.556;2023-03-15T13:12:32;3.13;;;2.83;;
10465;SDS011;5280;42.600;23.556;2023-03-15T13:15:06;3.43;;;2.60;;
10465;SDS011;5280;42.600;23.556;2023-03-15T13:17:40;3.97;;;3.17;;
10465;SDS011;5280;42.600;23.556;2023-03-15T13:20:23;3.70;;;2.80;;
10465;SDS011;5280;42.600;23.556;2023-03-15T13:23:10;3.77;;;2.70;;
10465;SDS011;5280;42.600;23.556;2023-03-15T13:25:42;5.10;;;3.20;;
10465;SDS011;5280;42.600;23.556;2023-03-15T13:28:21;5.40;;;2.83;;
10465;SDS011;5280;42.600;23.556;2023-03-15T13:30:50;2.83;;;2.50;;
10465;SDS011;5280;42.600;23.556;2023-03-15T13:33:19;5.03;;;3.00;;
10465;SDS011;5280;42.600;23.556;2023-03-15T13:35:52;4.70;;;2.67;;
10465;SDS011;5280;42.600;23.556;2023-03-15T13:38:25;4.20;;;2.77;;
10465;SDS011;5280;42.600;23.556;2023-03-15T13:40:54;6.03;;;2.33;;
10465;SDS011;5280;42.600;23.556;2023-03-15T13:43:27;2.50;;;2.27;;
10465;SDS011;5280;42.600;23.556;2023-03-15T13:45:58;3.47;;;2.60;;
10465;SDS011;5280;42.600;23.556;2023-03-15T13:48:26;4.93;;;2.93;;
10465;SDS011;5280;42.600;23.556;2023-03-15T13:50:55;3.80;;;2.40;;
10465;SDS011;5280;42.600;23.556;2023-03-15T13:53:31;4.67;;;2.77;;
10465;SDS011;5280;42.600;23.556;2023-03-15T13:56:00;3.73;;;2.80;;
10465;SDS011;5280;42.600;23.556;2023-03-15T13:58:28;4.13;;;2.90;;
10465;SDS011;5280;42.600;23.556;2023-03-15T14:00:56;3.67;;;2.37;;
10465;SDS011;5280;42.600;23.556;2023-03-15T14:03:25;4.90;;;2.43;;
10465;SDS011;5280;42.600;23.556;2023-03-15T14:05:54;3.77;;;2.53;;
10465;SDS011;5280;42.600;23.556;2023-03-15T14:08:22;3.63;;;2.53;;
10465;SDS011;5280;42.600;23.556;2023-03-15T14:10:58;5.53;;;2.67;;
10465;SDS011;5280;42.600;23.556;2023-03-15T14:13:29;4.67;;;3.03;;
10465;SDS011;5280;42.600;23.556;2023-03-15T14:15:58;4.20;;;2.90;;
10465;SDS011;5280;42.600;23.556;2023-03-15T14:18:31;2.90;;;2.60;;
10465;SDS011;5280;42.600;23.556;2023-03-15T14:21:00;4.50;;;2.80;;
10465;SDS011;5280;42.600;23.556;2023-03-15T14:23:29;3.80;;;2.83;;
10465;SDS011;5280;42.600;23.556;2023-03-15T14:26:01;3.33;;;2.60;;
10465;SDS011;5280;42.600;23.556;2023-03-15T14:28:33;4.00;;;3.17;;
10465;SDS011;5280;42.600;23.556;2023-03-15T14:31:04;4.87;;;3.40;;
10465;SDS011;5280;42.600;23.556;2023-03-15T14:33:32;6.53;;;4.03;;
10465;SDS011;5280;42.600;23.556;2023-03-15T14:36:05;7.77;;;4.40;;
10465;SDS011;5280;42.600;23.556;2023-03-15T14:38:36;6.77;;;3.90;;
10465;SDS011;5280;42.600;23.556;2023-03-15T14:41:16;3.40;;;3.10;;
10465;SDS011;5280;42.600;23.556;2023-03-15T14:43:49;5.07;;;3.50;;
10465;SDS011;5280;42.600;23.556;2023-03-15T14:46:16;6.20;;;3.03;;
10465;SDS011;5280;42.600;23.556;2023-03-15T14:48:43;6.17;;;3.93;;
10465;SDS011;5280;42.600;23.556;2023-03-15T14:51:11;3.70;;;3.33;;
10465;SDS011;5280;42.600;23.556;2023-03-15T14:53:41;4.37;;;3.60;;
10465;SDS011;5280;42.600;23.556;2023-03-15T14:56:10;6.27;;;3.27;;
10465;SDS011;5280;42.600;23.556;2023-03-15T14:58:38;5.30;;;3.23;;
10465;SDS011;5280;42.600;23.556;2023-03-15T15:01:06;5.63;;;3.30;;
10465;SDS011;5280;42.600;23.556;2023-03-15T15:03:38;5.37;;;3.03;;
10465;SDS011;5280;42.600;23.556;2023-03-15T15:06:07;4.57;;;3.20;;
10465;SDS011;5280;42.600;23.556;2023-03-15T15:08:38;4.50;;;3.30;;
10465;SDS011;5280;42.600;23.556;2023-03-15T15:11:07;5.93;;;3.50;;
10465;SDS011;5280;42.600;23.556;2023-03-15T15:13:35;4.37;;;3.00;;
10465;SDS011;5280;42.600;23.556;2023-03-15T15:16:03;5.43;;;3.30;;
10465;SDS011;5280;42.600;23.556;2023-03-15T15:18:31;7.67;;;3.27;;